createdAt,value
2018-01-29T00:01:52.280Z,103296.77
2018-01-29T00:04:19.739Z,103291.73
2018-01-29T00:06:47.263Z,103294.91
2018-01-29T00:09:14.869Z,103300.69
2018-01-29T00:11:42.379Z,103295.94
2018-01-29T00:14:09.919Z,103283.73
2018-01-29T00:16:37.410Z,103279.03
2018-01-29T00:19:04.968Z,103276.71
2018-01-29T00:21:32.516Z,103274.72
2018-01-29T00:24:00.075Z,103278.25
2018-01-29T00:26:27.578Z,103286.67
2018-01-29T00:28:55.060Z,103292.73
2018-01-29T00:31:22.572Z,103281.88
2018-01-29T00:33:50.082Z,103277.61
2018-01-29T00:36:17.587Z,103273.90
2018-01-29T00:38:45.053Z,103291.20
2018-01-29T00:41:12.630Z,103280.91
2018-01-29T00:43:40.096Z,103285.94
2018-01-29T00:46:07.590Z,103287.59
2018-01-29T00:48:35.120Z,103284.49
2018-01-29T00:51:02.606Z,103284.89
2018-01-29T00:53:30.106Z,103294.97
2018-01-29T00:55:57.583Z,103280.58
2018-01-29T00:58:25.067Z,103270.94
2018-01-29T01:00:52.559Z,103279.80
2018-01-29T01:03:20.087Z,103270.20
2018-01-29T01:05:47.562Z,103279.88
2018-01-29T01:08:15.054Z,103260.96
2018-01-29T01:10:42.557Z,103272.42
2018-01-29T01:13:10.066Z,103256.47
2018-01-29T01:15:37.554Z,103256.91
2018-01-29T01:18:05.772Z,103256.91
2018-01-29T01:20:33.325Z,103247.23
2018-01-29T01:23:00.831Z,103244.91
2018-01-29T01:25:28.440Z,103248.98
2018-01-29T01:27:56.044Z,103245.70
2018-01-29T01:30:23.552Z,103242.92
2018-01-29T01:32:51.047Z,103245.67
2018-01-29T01:35:18.550Z,103238.52
2018-01-29T01:37:46.054Z,103235.38
2018-01-29T01:40:13.580Z,103232.63
2018-01-29T01:42:41.258Z,103235.12
2018-01-29T01:45:08.806Z,103225.30
2018-01-29T01:47:36.338Z,103220.84
2018-01-29T01:50:03.856Z,103211.93
2018-01-29T01:52:31.400Z,103205.89
2018-01-29T01:54:58.932Z,103207.58
2018-01-29T01:57:26.477Z,103203.70
2018-01-29T01:59:54.025Z,103187.42
2018-01-29T02:02:21.556Z,103191.06
2018-01-29T02:04:49.059Z,103181.70
2018-01-29T02:07:16.582Z,103178.31
2018-01-29T02:09:44.161Z,103169.00
2018-01-29T02:12:11.687Z,103165.66
2018-01-29T02:14:39.207Z,103174.63
2018-01-29T02:17:06.698Z,103163.51
2018-01-29T02:19:34.219Z,103165.41
2018-01-29T02:22:01.699Z,103165.51
2018-01-29T02:24:29.211Z,103154.72
2018-01-29T02:26:56.710Z,103158.77
2018-01-29T02:29:24.229Z,103164.09
2018-01-29T02:31:51.729Z,103165.69
2018-01-29T02:34:19.248Z,103167.59
2018-01-29T02:36:46.760Z,103156.14
2018-01-29T02:39:14.375Z,103162.41
2018-01-29T02:41:41.880Z,103156.53
2018-01-29T02:44:09.378Z,103157.30
2018-01-29T02:46:36.888Z,103169.48
2018-01-29T02:49:04.389Z,103163.55
2018-01-29T02:51:31.892Z,103161.37
2018-01-29T02:53:59.379Z,103164.44
2018-01-29T02:56:26.868Z,103164.38
2018-01-29T02:58:54.358Z,103168.24
2018-01-29T03:01:21.865Z,103154.99
2018-01-29T03:03:49.403Z,103144.86
2018-01-29T03:06:16.941Z,103142.77
2018-01-29T03:08:44.454Z,103135.59
2018-01-29T03:11:11.947Z,103131.83
2018-01-29T03:13:39.443Z,103123.88
2018-01-29T03:16:06.933Z,103132.81
2018-01-29T03:18:34.422Z,103124.04
2018-01-29T03:21:01.900Z,103120.38
2018-01-29T03:23:29.407Z,103117.33
2018-01-29T03:25:56.905Z,103103.44
2018-01-29T03:28:24.395Z,103104.56
2018-01-29T03:30:51.897Z,103109.59
2018-01-29T03:33:19.387Z,103088.21
2018-01-29T03:35:46.881Z,103100.86
2018-01-29T03:38:14.373Z,103091.34
2018-01-29T03:40:41.853Z,103093.12
2018-01-29T03:43:09.364Z,103089.62
2018-01-29T03:45:36.845Z,103091.02
2018-01-29T03:48:04.334Z,103078.52
2018-01-29T03:50:31.837Z,103069.64
2018-01-29T03:52:59.338Z,103074.58
2018-01-29T03:55:26.831Z,103058.48
2018-01-29T03:57:54.338Z,103062.38
2018-01-29T04:00:21.825Z,103064.72
2018-01-29T04:02:49.339Z,103055.63
2018-01-29T04:05:16.832Z,103063.22
2018-01-29T04:07:44.326Z,103042.00
2018-01-29T04:10:11.816Z,103042.11
2018-01-29T04:12:39.315Z,103053.39
2018-01-29T04:15:06.816Z,103040.49
2018-01-29T04:17:34.327Z,103035.14
2018-01-29T04:20:01.827Z,103028.41
2018-01-29T04:22:29.310Z,103023.62
2018-01-29T04:24:56.804Z,103040.59
2018-01-29T04:27:24.319Z,103020.38
2018-01-29T04:29:51.813Z,103021.45
2018-01-29T04:32:19.315Z,103016.63
2018-01-29T04:34:46.806Z,103008.11
2018-01-29T04:37:14.358Z,103010.10
2018-01-29T04:39:41.851Z,103008.42
2018-01-29T04:42:09.338Z,103003.81
2018-01-29T04:44:36.841Z,103011.41
2018-01-29T04:47:04.326Z,103012.55
2018-01-29T04:49:31.821Z,103020.63
2018-01-29T04:51:59.324Z,103007.48
2018-01-29T04:54:26.817Z,102998.70
2018-01-29T04:56:54.316Z,103010.92
2018-01-29T04:59:21.825Z,103000.89
2018-01-29T05:01:49.295Z,103004.50
2018-01-29T05:04:16.802Z,103004.19
2018-01-29T05:06:44.328Z,103028.86
2018-01-29T05:09:11.812Z,103003.08
2018-01-29T05:11:39.304Z,103013.41
2018-01-29T05:14:06.801Z,103002.70
2018-01-29T05:16:34.295Z,103004.25
2018-01-29T05:19:01.770Z,102998.34
2018-01-29T05:21:29.396Z,102997.84
2018-01-29T05:23:56.888Z,103009.73
2018-01-29T05:26:24.366Z,103010.73
2018-01-29T05:28:51.868Z,102993.42
2018-01-29T05:31:19.402Z,102980.31
2018-01-29T05:33:46.892Z,102993.72
2018-01-29T05:39:19.344Z,102988.56
2018-01-29T05:41:46.840Z,102981.12
2018-01-29T05:44:14.357Z,102972.97
2018-01-29T05:46:41.868Z,102957.70
2018-01-29T05:49:09.370Z,102965.31
2018-01-29T05:51:36.874Z,102986.20
2018-01-29T05:54:04.378Z,102979.95
2018-01-29T05:56:31.912Z,102974.09
2018-01-29T05:58:59.396Z,102975.90
2018-01-29T06:01:26.886Z,102975.45
2018-01-29T06:03:54.396Z,102952.67
2018-01-29T06:06:21.896Z,102952.78
2018-01-29T06:08:49.391Z,102945.56
2018-01-29T06:11:16.889Z,102944.49
2018-01-29T06:13:44.378Z,102938.97
2018-01-29T06:16:11.888Z,102941.88
2018-01-29T06:18:39.371Z,102952.91
2018-01-29T06:21:06.864Z,102944.70
2018-01-29T06:23:34.343Z,102944.70
2018-01-29T06:26:01.841Z,102951.00
2018-01-29T06:28:29.341Z,102945.06
2018-01-29T06:30:56.848Z,102953.42
2018-01-29T06:33:24.354Z,102938.08
2018-01-29T06:35:51.837Z,102926.47
2018-01-29T06:38:19.365Z,102921.74
2018-01-29T06:40:46.853Z,102932.67
2018-01-29T06:43:14.330Z,102938.81
2018-01-29T06:45:41.860Z,102928.80
2018-01-29T06:48:09.343Z,102921.33
2018-01-29T06:50:36.824Z,102932.44
2018-01-29T06:53:04.339Z,102947.06
2018-01-29T06:55:31.831Z,102923.94
2018-01-29T06:57:59.336Z,102924.75
2018-01-29T07:00:26.854Z,102917.33
2018-01-29T07:02:57.379Z,102919.47
2018-01-29T07:05:24.884Z,102926.48
2018-01-29T07:07:52.427Z,102927.50
2018-01-29T07:10:20.227Z,102913.88
2018-01-29T07:12:50.788Z,102915.36
2018-01-29T07:15:18.301Z,102900.97
2018-01-29T07:17:45.796Z,102894.98
2018-01-29T07:20:13.318Z,102907.27
2018-01-29T07:22:40.802Z,102912.92
2018-01-29T07:25:08.312Z,102906.95
2018-01-29T07:27:35.827Z,102900.34
2018-01-29T07:30:03.343Z,102892.56
2018-01-29T07:32:30.839Z,102896.42
2018-01-29T07:34:58.361Z,102882.77
2018-01-29T07:37:25.863Z,102895.51
2018-01-29T07:39:53.376Z,102890.25
2018-01-29T07:42:20.917Z,102894.61
2018-01-29T07:44:48.477Z,102897.22
2018-01-29T07:47:15.967Z,102900.04
2018-01-29T07:49:43.483Z,102905.40
2018-01-29T07:52:11.135Z,102918.48
2018-01-29T07:54:38.652Z,102906.06
2018-01-29T07:57:06.185Z,102909.20
2018-01-29T07:59:33.718Z,102900.48
2018-01-29T08:02:01.786Z,102902.70
2018-01-29T08:04:29.300Z,102899.22
2018-01-29T08:07:00.055Z,102894.47
2018-01-29T08:09:32.026Z,102916.47
2018-01-29T08:11:59.560Z,102903.56
2018-01-29T08:14:27.083Z,102908.92
2018-01-29T08:16:54.570Z,102918.99
2018-01-29T08:19:22.174Z,102904.83
2018-01-29T08:21:49.676Z,102961.19
2018-01-29T08:24:17.176Z,102918.45
2018-01-29T08:26:44.712Z,102909.36
2018-01-29T08:29:12.199Z,102948.19
2018-01-29T08:31:39.881Z,102928.48
2018-01-29T08:34:07.574Z,102911.97
2018-01-29T08:36:35.079Z,102905.73
2018-01-29T08:39:02.566Z,102914.53
2018-01-29T08:41:30.063Z,102914.86
2018-01-29T08:43:57.555Z,102951.66
2018-01-29T08:46:25.130Z,102935.14
2018-01-29T08:48:52.655Z,102926.86
2018-01-29T08:51:21.009Z,102921.33
2018-01-29T08:53:48.512Z,102914.67
2018-01-29T08:56:16.015Z,102918.34
2018-01-29T08:58:43.541Z,102911.84
2018-01-29T09:01:11.036Z,102925.80
2018-01-29T09:03:38.532Z,102933.84
2018-01-29T09:06:06.043Z,102931.73
2018-01-29T09:08:33.559Z,102928.45
2018-01-29T09:11:01.067Z,102913.19
2018-01-29T09:13:28.587Z,102916.48
2018-01-29T09:15:56.142Z,102910.30
2018-01-29T09:18:23.661Z,102922.42
2018-01-29T09:20:51.204Z,102912.70
2018-01-29T09:23:18.720Z,102924.47
2018-01-29T09:25:46.232Z,102918.73
2018-01-29T09:28:13.724Z,102919.66
2018-01-29T09:30:41.252Z,102930.30
2018-01-29T09:33:08.744Z,102933.42
2018-01-29T09:35:36.304Z,102932.45
2018-01-29T09:38:03.841Z,102919.67
2018-01-29T09:40:31.356Z,102926.41
2018-01-29T09:42:58.874Z,102930.56
2018-01-29T09:45:26.387Z,102929.48
2018-01-29T09:47:53.891Z,102919.75
2018-01-29T09:50:21.415Z,102926.13
2018-01-29T09:52:48.903Z,102930.47
2018-01-29T09:55:16.438Z,102921.22
2018-01-29T09:57:43.957Z,102926.02
2018-01-29T10:00:11.456Z,102924.59
2018-01-29T10:02:38.945Z,102928.60
2018-01-29T10:05:06.464Z,102915.73
2018-01-29T10:07:33.948Z,102920.78
2018-01-29T10:10:01.471Z,102929.13
2018-01-29T10:12:28.973Z,102918.06
2018-01-29T10:14:56.469Z,102929.78
2018-01-29T10:17:23.965Z,102920.92
2018-01-29T10:19:51.458Z,102907.53
2018-01-29T10:22:18.975Z,102917.24
2018-01-29T10:24:46.462Z,102915.82
2018-01-29T10:27:13.976Z,102916.39
2018-01-29T10:29:41.523Z,102909.05
2018-01-29T10:32:09.037Z,102912.02
2018-01-29T10:34:36.570Z,102922.50
2018-01-29T10:37:04.141Z,102918.66
2018-01-29T10:39:31.649Z,102937.34
2018-01-29T10:41:59.145Z,102915.74
2018-01-29T10:44:26.631Z,102922.30
2018-01-29T10:46:54.125Z,102915.97
2018-01-29T10:49:21.655Z,102921.23
2018-01-29T10:51:49.141Z,102920.55
2018-01-29T10:54:16.627Z,102923.23
2018-01-29T10:56:44.118Z,102950.88
2018-01-29T10:59:11.611Z,102917.95
2018-01-29T11:01:44.585Z,102904.00
2018-01-29T11:04:12.092Z,102918.05
2018-01-29T11:06:39.638Z,102911.60
2018-01-29T11:09:07.117Z,102904.05
2018-01-29T11:11:34.611Z,102925.58
2018-01-29T11:14:02.121Z,102916.92
2018-01-29T11:16:29.610Z,102904.31
2018-01-29T11:18:57.087Z,102906.33
2018-01-29T11:21:24.598Z,102916.63
2018-01-29T11:23:52.083Z,102933.95
2018-01-29T11:26:19.632Z,102909.14
2018-01-29T11:28:47.123Z,102919.19
2018-01-29T11:31:14.620Z,102911.52
2018-01-29T11:33:42.143Z,102911.80
2018-01-29T11:36:09.643Z,102912.48
2018-01-29T11:38:37.156Z,102910.64
2018-01-29T11:41:04.663Z,102907.87
2018-01-29T11:43:32.175Z,102908.70
2018-01-29T11:45:59.672Z,102902.06
2018-01-29T11:48:27.188Z,102905.28
2018-01-29T11:50:54.707Z,102939.07
2018-01-29T11:53:22.224Z,102909.53
2018-01-29T11:55:49.768Z,102919.64
2018-01-29T11:58:17.277Z,102924.87
2018-01-29T12:00:44.797Z,102917.01
2018-01-29T12:03:12.287Z,102923.34
2018-01-29T12:05:39.779Z,102917.70
2018-01-29T12:08:07.254Z,102933.83
2018-01-29T12:10:34.772Z,102946.34
2018-01-29T12:13:02.275Z,102929.48
2018-01-29T12:15:29.787Z,102942.67
2018-01-29T12:17:57.265Z,102945.86
2018-01-29T12:20:25.035Z,102935.73
2018-01-29T12:22:52.548Z,102931.37
2018-01-29T12:25:20.070Z,102937.04
2018-01-29T12:27:47.580Z,102939.02
2018-01-29T12:30:15.088Z,102949.44
2018-01-29T12:32:42.591Z,102950.73
2018-01-29T12:35:10.089Z,102942.08
2018-01-29T12:37:37.599Z,102953.88
2018-01-29T12:40:05.072Z,102954.16
2018-01-29T12:42:32.577Z,102943.38
2018-01-29T12:45:00.202Z,102945.59
2018-01-29T12:47:27.674Z,102952.37
2018-01-29T12:49:55.148Z,102951.39
2018-01-29T12:52:22.654Z,102956.78
2018-01-29T12:54:50.129Z,102956.66
2018-01-29T12:57:17.639Z,102962.98
2018-01-29T12:59:45.133Z,102961.66
2018-01-29T13:02:12.638Z,102955.91
2018-01-29T13:04:40.135Z,102963.27
2018-01-29T13:07:07.635Z,102953.28
2018-01-29T13:09:35.174Z,102967.27
2018-01-29T13:12:02.711Z,102959.58
2018-01-29T13:14:30.210Z,102942.37
2018-01-29T13:16:57.686Z,102958.18
2018-01-29T13:19:25.190Z,102951.05
2018-01-29T13:21:52.701Z,102946.53
2018-01-29T13:24:20.275Z,102950.45
2018-01-29T13:26:47.826Z,102946.59
2018-01-29T13:29:15.344Z,102942.23
2018-01-29T13:31:42.865Z,102941.27
2018-01-29T13:34:10.353Z,102944.65
2018-01-29T13:36:37.859Z,102947.61
2018-01-29T13:39:05.420Z,102954.44
2018-01-29T13:41:32.942Z,102943.97
2018-01-29T13:44:00.418Z,102951.77
2018-01-29T13:46:27.943Z,102953.72
2018-01-29T13:48:55.435Z,102960.22
2018-01-29T13:51:22.963Z,102961.98
2018-01-29T13:53:50.447Z,102959.09
2018-01-29T13:56:17.930Z,102960.67
2018-01-29T13:58:45.455Z,102967.45
2018-01-29T14:01:12.951Z,102972.55
2018-01-29T14:03:40.450Z,102975.28
2018-01-29T14:06:07.966Z,102974.77
2018-01-29T14:08:35.471Z,102976.67
2018-01-29T14:11:02.950Z,102989.71
2018-01-29T14:13:30.431Z,102999.82
2018-01-29T14:15:57.921Z,103004.74
2018-01-29T14:18:25.404Z,103000.83
2018-01-29T14:20:52.902Z,102995.78
2018-01-29T14:23:20.418Z,103005.38
2018-01-29T14:25:47.971Z,103003.95
2018-01-29T14:28:15.402Z,103012.17
2018-01-29T14:30:42.919Z,103014.67
2018-01-29T14:33:10.406Z,103017.16
2018-01-29T14:35:37.903Z,103017.53
2018-01-29T14:38:05.411Z,103012.73
2018-01-29T14:40:32.925Z,103014.47
2018-01-29T14:43:00.404Z,103017.96
2018-01-29T14:45:27.905Z,103023.66
2018-01-29T14:47:55.406Z,103019.04
2018-01-29T14:50:22.884Z,103023.46
2018-01-29T14:52:50.370Z,103026.70
2018-01-29T14:55:17.857Z,103032.16
2018-01-29T14:57:45.351Z,103039.52
2018-01-29T15:00:12.834Z,103049.81
2018-01-29T15:02:40.330Z,103049.73
2018-01-29T15:05:07.807Z,103050.45
2018-01-29T15:07:35.314Z,103052.06
2018-01-29T15:10:02.832Z,103052.65
2018-01-29T15:12:30.358Z,103052.23
2018-01-29T15:14:57.839Z,103049.75
2018-01-29T15:17:25.318Z,103049.25
2018-01-29T15:19:52.812Z,103047.52
2018-01-29T15:22:20.296Z,103058.23
2018-01-29T15:24:47.814Z,103061.16
2018-01-29T15:27:15.323Z,103064.95
2018-01-29T15:29:42.803Z,103066.16
2018-01-29T15:32:10.291Z,103068.91
2018-01-29T15:34:37.784Z,103072.03
2018-01-29T15:37:05.280Z,103069.55
2018-01-29T15:39:32.758Z,103068.84
2018-01-29T15:42:00.255Z,103077.86
2018-01-29T15:44:27.743Z,103081.13
2018-01-29T15:46:55.236Z,103088.89
2018-01-29T15:49:22.742Z,103092.69
2018-01-29T15:51:50.233Z,103095.37
2018-01-29T15:54:17.722Z,103103.30
2018-01-29T15:56:45.216Z,103104.16
2018-01-29T15:59:12.715Z,103110.59
2018-01-29T16:01:40.203Z,103114.47
2018-01-29T16:04:07.759Z,103119.64
2018-01-29T16:06:35.285Z,103117.39
2018-01-29T16:09:02.822Z,103123.57
2018-01-29T16:11:30.296Z,103126.34
2018-01-29T16:13:57.774Z,103136.52
2018-01-29T16:16:25.270Z,103129.71
2018-01-29T16:18:52.763Z,103122.97
2018-01-29T16:21:20.260Z,103130.50
2018-01-29T16:23:47.759Z,103134.55
2018-01-29T16:26:15.258Z,103128.64
2018-01-29T16:28:42.803Z,103134.92
2018-01-29T16:31:10.304Z,103136.03
2018-01-29T16:33:37.792Z,103139.67
2018-01-29T16:36:05.307Z,103141.63
2018-01-29T16:38:32.809Z,103143.55
2018-01-29T16:41:00.333Z,103154.10
2018-01-29T16:43:27.827Z,103157.74
2018-01-29T16:45:55.310Z,103161.81
2018-01-29T16:48:22.806Z,103155.00
2018-01-29T16:50:50.405Z,103160.31
2018-01-29T16:53:17.897Z,103159.14
2018-01-29T16:55:45.400Z,103161.52
2018-01-29T16:58:12.922Z,103167.74
2018-01-29T17:00:40.435Z,103175.67
2018-01-29T17:03:07.943Z,103171.05
2018-01-29T17:05:35.448Z,103175.50
2018-01-29T17:08:03.027Z,103183.38
2018-01-29T17:10:30.538Z,103186.10
2018-01-29T17:12:58.031Z,103194.01
2018-01-29T17:15:25.535Z,103201.41
2018-01-29T17:17:53.026Z,103202.80
2018-01-29T17:20:20.583Z,103211.57
2018-01-29T17:22:48.075Z,103210.27
2018-01-29T17:25:15.586Z,103220.78
2018-01-29T17:27:43.099Z,103221.69
2018-01-29T17:30:10.645Z,103222.16
2018-01-29T17:32:38.159Z,103222.19
2018-01-29T17:35:05.658Z,103226.57
2018-01-29T17:37:33.280Z,103224.00
2018-01-29T17:40:00.782Z,103213.66
2018-01-29T17:42:28.285Z,103213.69
2018-01-29T17:44:55.815Z,103214.16
2018-01-29T17:47:23.337Z,103219.00
2018-01-29T17:49:50.835Z,103225.96
2018-01-29T17:52:18.427Z,103234.28
2018-01-29T17:54:45.944Z,103230.84
2018-01-29T17:57:13.453Z,103220.86
2018-01-29T17:59:40.955Z,103227.02
2018-01-29T18:02:08.499Z,103223.64
2018-01-29T18:04:36.011Z,103227.61
2018-01-29T18:07:03.547Z,103235.49
2018-01-29T18:09:31.043Z,103239.43
2018-01-29T18:11:58.518Z,103244.67
2018-01-29T18:14:26.054Z,103236.87
2018-01-29T18:16:53.547Z,103239.55
2018-01-29T18:19:21.050Z,103244.81
2018-01-29T18:21:48.564Z,103250.92
2018-01-29T18:24:16.071Z,103262.22
2018-01-29T18:26:43.584Z,103273.05
2018-01-29T18:29:11.071Z,103269.20
2018-01-29T18:31:38.568Z,103261.44
2018-01-29T18:34:06.140Z,103259.72
2018-01-29T18:36:33.646Z,103268.88
2018-01-29T18:39:01.159Z,103281.45
2018-01-29T18:41:28.678Z,103284.08
2018-01-29T18:43:56.276Z,103286.26
2018-01-29T18:46:23.784Z,103286.27
2018-01-29T18:48:51.314Z,103289.78
2018-01-29T18:51:18.815Z,103298.05
2018-01-29T18:53:46.328Z,103299.38
2018-01-29T18:56:13.834Z,103295.93
2018-01-29T18:58:41.344Z,103301.16
2018-01-29T19:01:08.847Z,103295.11
2018-01-29T19:03:36.448Z,103305.14
2018-01-29T19:06:04.123Z,103308.62
2018-01-29T19:08:31.611Z,103320.31
2018-01-29T19:10:59.173Z,103318.58
2018-01-29T19:13:26.687Z,103314.28
2018-01-29T19:15:54.225Z,103316.48
2018-01-29T19:18:21.714Z,103320.86
2018-01-29T19:20:49.230Z,103337.35
2018-01-29T19:23:16.717Z,103335.60
2018-01-29T19:25:44.220Z,103322.63
2018-01-29T19:28:11.738Z,103328.27
2018-01-29T19:30:39.259Z,103337.39
2018-01-29T19:33:06.762Z,103341.28
2018-01-29T19:35:34.251Z,103335.23
2018-01-29T19:38:01.791Z,103338.72
2018-01-29T19:40:29.289Z,103335.67
2018-01-29T19:42:56.810Z,103342.62
2018-01-29T19:45:24.287Z,103359.11
2018-01-29T19:47:51.827Z,103359.55
2018-01-29T19:50:19.320Z,103357.41
2018-01-29T19:52:46.826Z,103351.33
2018-01-29T19:55:14.331Z,103356.11
2018-01-29T19:57:41.812Z,103356.54
2018-01-29T20:00:09.308Z,103355.69
2018-01-29T20:02:36.812Z,103362.63
2018-01-29T20:05:04.326Z,103366.95
2018-01-29T20:07:31.887Z,103361.77
2018-01-29T20:09:59.369Z,103369.55
2018-01-29T20:12:26.879Z,103379.95
2018-01-29T20:14:54.355Z,103388.19
2018-01-29T20:17:21.840Z,103396.00
2018-01-29T20:19:49.357Z,103387.31
2018-01-29T20:22:16.839Z,103392.52
2018-01-29T20:24:44.341Z,103395.99
2018-01-29T20:27:11.855Z,103398.58
2018-01-29T20:29:39.363Z,103403.77
2018-01-29T20:32:06.858Z,103407.68
2018-01-29T20:34:34.419Z,103414.56
2018-01-29T20:37:02.027Z,103414.14
2018-01-29T20:39:29.543Z,103409.80
2018-01-29T20:41:57.028Z,103405.94
2018-01-29T20:44:24.550Z,103405.05
2018-01-29T20:46:52.044Z,103406.74
2018-01-29T20:49:19.524Z,103411.52
2018-01-29T20:51:47.027Z,103396.34
2018-01-29T20:54:14.545Z,103389.36
2018-01-29T20:56:42.164Z,103398.88
2018-01-29T20:59:09.690Z,103394.55
2018-01-29T21:01:37.171Z,103389.78
2018-01-29T21:04:04.651Z,103394.99
2018-01-29T21:06:32.130Z,103392.38
2018-01-29T21:09:00.056Z,103394.14
2018-01-29T21:11:27.535Z,103394.98
2018-01-29T21:13:55.039Z,103394.09
2018-01-29T21:16:22.522Z,103395.80
2018-01-29T21:18:50.007Z,103397.98
2018-01-29T21:21:17.467Z,103393.18
2018-01-29T21:23:44.999Z,103413.05
2018-01-29T21:26:12.483Z,103415.23
2018-01-29T21:28:39.962Z,103413.50
2018-01-29T21:31:07.486Z,103411.34
2018-01-29T21:33:34.996Z,103417.00
2018-01-29T21:36:02.488Z,103410.54
2018-01-29T21:38:30.035Z,103413.58
2018-01-29T21:40:57.539Z,103409.67
2018-01-29T21:43:25.114Z,103407.08
2018-01-29T21:45:52.627Z,103407.49
2018-01-29T21:48:20.115Z,103407.92
2018-01-29T21:50:47.627Z,103405.75
2018-01-29T21:53:15.125Z,103402.30
2018-01-29T21:55:42.659Z,103409.63
2018-01-29T21:58:10.144Z,103413.52
2018-01-29T22:00:37.665Z,103415.25
2018-01-29T22:03:05.160Z,103413.50
2018-01-29T22:05:32.692Z,103411.30
2018-01-29T22:08:00.233Z,103413.44
2018-01-29T22:10:27.757Z,103412.13
2018-01-29T22:12:55.264Z,103417.75
2018-01-29T22:15:22.823Z,103422.08
2018-01-29T22:17:50.323Z,103426.84
2018-01-29T22:20:17.825Z,103427.25
2018-01-29T22:22:45.347Z,103428.98
2018-01-29T22:25:12.851Z,103426.41
2018-01-29T22:27:40.336Z,103420.75
2018-01-29T22:30:07.840Z,103432.84
2018-01-29T22:32:35.327Z,103440.20
2018-01-29T22:35:02.845Z,103436.26
2018-01-29T22:37:30.350Z,103442.73
2018-01-29T22:39:57.898Z,103441.44
2018-01-29T22:42:25.373Z,103448.75
2018-01-29T22:44:52.856Z,103446.14
2018-01-29T22:47:20.389Z,103438.80
2018-01-29T22:49:47.870Z,103443.52
2018-01-29T22:52:15.367Z,103442.19
2018-01-29T22:54:42.851Z,103439.59
2018-01-29T22:57:10.413Z,103444.35
2018-01-29T22:59:37.905Z,103444.31
2018-01-29T23:02:05.424Z,103443.00
2018-01-29T23:04:32.941Z,103440.40
2018-01-29T23:07:00.438Z,103438.22
2018-01-29T23:09:27.955Z,103433.86
2018-01-29T23:11:55.450Z,103438.19
2018-01-29T23:14:22.927Z,103443.36
2018-01-29T23:16:50.428Z,103443.34
2018-01-29T23:19:17.941Z,103446.37
2018-01-29T23:21:45.432Z,103445.93
2018-01-29T23:24:12.939Z,103444.20
2018-01-29T23:26:40.418Z,103435.11
2018-01-29T23:29:07.899Z,103435.53
2018-01-29T23:31:35.395Z,103443.67
2018-01-29T23:34:02.887Z,103438.48
2018-01-29T23:36:30.368Z,103445.37
2018-01-29T23:38:57.888Z,103446.65
2018-01-29T23:41:25.455Z,103447.46
2018-01-29T23:43:52.939Z,103442.27
2018-01-29T23:46:20.444Z,103445.68
2018-01-29T23:48:47.927Z,103439.06
2018-01-29T23:51:15.409Z,103442.88
2018-01-29T23:53:42.904Z,103455.45
2018-01-29T23:56:10.378Z,103454.61
2018-01-29T23:58:37.867Z,103453.77
